Time;durP1;ratioP1;P1;durP2;ratioP2;P2;SDS_P1;SDS_P2;PMS_P1;PMS_P2;Temp;Humidity;BMP_temperature;BMP_pressure;BME280_temperature;BME280_humidity;BME280_pressure;Samples;Min_cycle;Max_cycle;Signal;HPM_P1;HPM_P2
2021/12/30 00:02:07;;;;;;;35.70;9.85;;;;;;;10.78;100.00;100966.66;4993110;28;20039;-46
2021/12/30 00:04:35;;;;;;;25.98;9.18;;;;;;;10.81;100.00;100971.56;4993426;28;20038;-49
2021/12/30 00:07:04;;;;;;;26.95;9.80;;;;;;;10.81;100.00;100982.47;4992059;28;20034;-50
2021/12/30 00:09:31;;;;;;;26.77;9.15;;;;;;;10.81;100.00;100983.28;4993840;28;20036;-49
2021/12/30 00:11:59;;;;;;;33.15;11.10;;;;;;;10.82;100.00;100989.53;4975964;28;20076;-48
2021/12/30 00:14:40;;;;;;;30.20;10.40;;;;;;;10.85;100.00;100997.22;4991909;28;20062;-46
2021/12/30 00:17:07;;;;;;;33.85;10.63;;;;;;;10.84;100.00;100996.38;4993104;28;20075;-51
2021/12/30 00:19:35;;;;;;;28.27;10.20;;;;;;;10.85;100.00;100999.94;4997934;28;20105;-53
2021/12/30 00:22:04;;;;;;;34.63;10.75;;;;;;;10.85;100.00;101006.22;4993978;28;20069;-46
2021/12/30 00:24:32;;;;;;;27.38;9.25;;;;;;;10.84;100.00;101003.72;4992511;28;20563;-51
2021/12/30 00:26:59;;;;;;;29.88;9.45;;;;;;;10.84;100.00;100998.28;4991860;28;20133;-53
2021/12/30 00:29:27;;;;;;;23.58;8.15;;;;;;;10.85;100.00;101006.22;4997234;28;20038;-50
2021/12/30 00:31:55;;;;;;;30.70;9.45;;;;;;;10.84;100.00;101001.00;5010907;28;20042;-48
2021/12/30 00:34:23;;;;;;;29.65;8.45;;;;;;;10.84;100.00;101001.00;5012600;28;20083;-52
2021/12/30 00:36:50;;;;;;;28.58;8.85;;;;;;;10.85;100.00;101002.66;5011341;28;20542;-51
2021/12/30 00:39:18;;;;;;;31.90;9.25;;;;;;;10.85;100.00;101005.38;5010728;28;20050;-51
2021/12/30 00:41:46;;;;;;;33.20;8.90;;;;;;;10.84;100.00;101017.38;5006992;28;20496;-50
2021/12/30 00:44:14;;;;;;;33.28;9.43;;;;;;;10.82;100.00;101006.75;4992839;28;20109;-50
2021/12/30 00:46:41;;;;;;;31.48;9.18;;;;;;;10.83;100.00;101007.56;4992939;28;20039;-52
2021/12/30 00:49:09;;;;;;;27.05;8.43;;;;;;;10.85;100.00;101008.13;4992660;28;20520;-51
2021/12/30 00:51:41;;;;;;;31.25;9.25;;;;;;;10.86;100.00;101012.47;4993707;28;20044;-50
2021/12/30 00:54:09;;;;;;;29.15;8.18;;;;;;;10.87;100.00;101017.66;4992447;28;20058;-48
2021/12/30 00:56:36;;;;;;;22.08;7.22;;;;;;;10.90;100.00;101012.78;4991640;28;20213;-52
2021/12/30 00:59:04;;;;;;;30.92;8.65;;;;;;;10.89;100.00;101011.94;5005533;28;20385;-49
2021/12/30 01:01:32;;;;;;;36.17;9.65;;;;;;;10.89;100.00;101011.94;5014376;28;20493;-49
2021/12/30 01:04:00;;;;;;;27.90;8.32;;;;;;;10.90;100.00;101013.59;5016070;28;20045;-49
2021/12/30 01:06:28;;;;;;;22.80;7.35;;;;;;;10.91;100.00;101015.22;5014991;28;20133;-49
2021/12/30 01:08:57;;;;;;;31.98;9.55;;;;;;;10.90;100.00;101019.03;5014930;28;20374;-50
2021/12/30 01:11:25;;;;;;;32.45;9.55;;;;;;;10.91;100.00;101020.66;5008470;28;20052;-48
2021/12/30 01:14:13;;;;;;;28.05;8.52;;;;;;;10.92;100.00;101025.06;5016047;28;20046;-49
2021/12/30 01:16:43;;;;;;;28.10;8.80;;;;;;;10.91;100.00;101023.41;5001343;28;20100;-49
2021/12/30 01:19:23;;;;;;;28.83;8.45;;;;;;;10.93;100.00;101023.16;5007656;28;20038;-45
2021/12/30 01:21:53;;;;;;;27.65;8.50;;;;;;;10.93;100.00;101032.13;4997455;28;20069;-53
2021/12/30 01:24:22;;;;;;;24.08;7.63;;;;;;;10.94;100.00;101035.69;4995184;28;20489;-51
2021/12/30 01:26:50;;;;;;;27.88;8.23;;;;;;;10.94;100.00;101031.03;4996258;28;20519;-49
2021/12/30 01:29:18;;;;;;;24.95;7.57;;;;;;;10.96;100.00;101026.13;5006064;28;20385;-50
2021/12/30 01:31:47;;;;;;;29.20;8.30;;;;;;;10.96;100.00;101028.88;5014412;28;20057;-48
2021/12/30 01:34:21;;;;;;;33.03;9.95;;;;;;;11.00;100.00;101040.06;5015862;28;20488;-50
2021/12/30 01:36:49;;;;;;;24.10;7.97;;;;;;;10.99;100.00;101024.78;5015862;28;20053;-49
2021/12/30 01:39:19;;;;;;;28.00;9.00;;;;;;;10.99;100.00;101036.53;5015688;28;20038;-53
2021/12/30 01:41:49;;;;;;;24.17;7.60;;;;;;;10.98;100.00;101029.44;5014351;28;20050;-48
2021/12/30 01:44:20;;;;;;;26.63;8.43;;;;;;;10.99;100.00;101033.81;5014288;28;20081;-48
2021/12/30 01:46:49;;;;;;;21.40;7.13;;;;;;;10.99;100.00;101028.34;4994903;28;20046;-49
2021/12/30 01:49:17;;;;;;;29.33;8.55;;;;;;;11.01;100.00;101025.34;4994891;28;20129;-47
2021/12/30 01:51:45;;;;;;;24.80;6.78;;;;;;;11.01;100.00;101020.72;4996859;28;20046;-48
2021/12/30 01:54:13;;;;;;;26.17;7.55;;;;;;;11.02;100.00;101016.09;4995609;28;20054;-48
2021/12/30 01:56:41;;;;;;;27.35;7.55;;;;;;;11.04;100.00;101019.34;4995406;28;20089;-48
2021/12/30 01:59:09;;;;;;;24.52;7.43;;;;;;;11.04;100.00;101020.19;5013103;28;20038;-50
2021/12/30 02:01:37;;;;;;;26.70;7.53;;;;;;;11.05;100.00;101027.28;5015227;28;20054;-50
2021/12/30 02:04:05;;;;;;;25.45;8.00;;;;;;;11.05;100.00;101029.19;4996655;28;20050;-54
2021/12/30 02:06:33;;;;;;;25.33;7.45;;;;;;;11.06;100.00;101018.03;4994485;28;20049;-47
2021/12/30 02:09:00;;;;;;;27.38;8.35;;;;;;;11.09;100.00;101019.41;4994703;28;20042;-49
2021/12/30 02:11:28;;;;;;;25.38;8.35;;;;;;;11.09;100.00;101025.66;4995098;28;20045;-50
2021/12/30 02:13:56;;;;;;;28.98;8.25;;;;;;;11.11;100.00;101036.28;5007817;28;20058;-49
2021/12/30 02:16:24;;;;;;;23.70;8.18;;;;;;;11.13;100.00;101036.84;5015207;28;20046;-45
2021/12/30 02:18:52;;;;;;;26.10;8.25;;;;;;;11.14;100.00;101040.41;4997578;28;20377;-49
2021/12/30 02:21:20;;;;;;;28.73;8.88;;;;;;;11.16;100.00;101046.41;4995380;28;20042;-48
2021/12/30 02:23:48;;;;;;;26.02;8.63;;;;;;;11.17;100.00;101053.53;5000780;28;20125;-48
2021/12/30 02:26:18;;;;;;;25.33;8.30;;;;;;;11.18;100.00;101066.06;5014728;28;20038;-47
2021/12/30 02:28:47;;;;;;;27.58;9.27;;;;;;;11.20;100.00;101052.97;5014712;28;20334;-48
2021/12/30 02:31:26;;;;;;;25.60;8.48;;;;;;;11.21;100.00;101051.91;5014862;28;20045;-48
2021/12/30 02:33:55;;;;;;;28.05;8.20;;;;;;;11.21;100.00;101057.38;5001714;28;20053;-48
2021/12/30 02:36:32;;;;;;;23.63;8.02;;;;;;;11.23;100.00;101046.97;4996661;28;20091;-47
2021/12/30 02:39:12;;;;;;;18.20;7.60;;;;;;;11.24;100.00;101052.19;4993871;28;20054;-46
2021/12/30 02:41:40;;;;;;;25.27;8.68;;;;;;;11.26;100.00;101050.00;4994740;28;20182;-48
2021/12/30 02:44:09;;;;;;;25.83;8.25;;;;;;;11.25;100.00;101053.00;4996022;28;20103;-50
2021/12/30 02:46:39;;;;;;;25.48;8.48;;;;;;;11.25;100.00;101042.91;4994585;28;20585;-49
2021/12/30 02:49:07;;;;;;;18.23;7.07;;;;;;;11.25;100.00;101042.91;4995118;28;20050;-52
2021/12/30 02:51:35;;;;;;;21.90;8.10;;;;;;;11.25;100.00;101047.53;4994625;28;20050;-51
2021/12/30 02:54:04;;;;;;;24.30;9.32;;;;;;;11.25;100.00;101053.00;4995898;28;20050;-50
2021/12/30 02:56:31;;;;;;;26.13;8.40;;;;;;;11.26;100.00;101049.19;5009491;28;20125;-51
2021/12/30 02:58:59;;;;;;;25.90;8.85;;;;;;;11.27;100.00;101053.56;5014514;28;20108;-50
2021/12/30 03:01:29;;;;;;;23.77;8.40;;;;;;;11.27;100.00;101054.38;5014408;28;20044;-50
2021/12/30 03:04:00;;;;;;;26.35;9.55;;;;;;;11.28;100.00;101060.63;5014146;28;20042;-47
2021/12/30 03:06:28;;;;;;;22.92;8.85;;;;;;;11.26;100.00;101063.66;5012530;28;20065;-48
2021/12/30 03:08:56;;;;;;;23.33;9.02;;;;;;;11.28;100.00;101057.91;5014178;28;20128;-50
2021/12/30 03:11:25;;;;;;;19.58;8.02;;;;;;;11.28;100.00;101064.22;5014159;28;20045;-47
2021/12/30 03:13:54;;;;;;;23.08;8.02;;;;;;;11.29;100.00;101070.47;5012389;28;20054;-50
2021/12/30 03:16:24;;;;;;;20.13;7.80;;;;;;;11.28;100.00;101064.22;4997673;28;20046;-46
2021/12/30 03:18:53;;;;;;;21.75;7.80;;;;;;;11.28;100.00;101061.47;4994442;28;20137;-47
2021/12/30 03:21:23;;;;;;;20.48;7.15;;;;;;;11.30;100.00;101066.66;4993584;28;20044;-48
2021/12/30 03:23:51;;;;;;;20.52;7.10;;;;;;;11.29;100.00;101068.56;4994048;28;20169;-47
2021/12/30 03:26:20;;;;;;;18.95;7.75;;;;;;;11.29;100.00;101071.28;5008562;28;20132;-51
2021/12/30 03:28:48;;;;;;;17.15;6.75;;;;;;;11.29;100.00;101065.03;5013911;28;20073;-46
2021/12/30 03:31:18;;;;;;;16.20;5.88;;;;;;;11.29;100.00;101065.03;5012396;28;20515;-48
2021/12/30 03:33:46;;;;;;;18.33;6.68;;;;;;;11.30;100.00;101066.66;5012216;28;20048;-51
2021/12/30 03:36:15;;;;;;;17.58;6.13;;;;;;;11.32;100.00;101072.66;5013862;28;20384;-46
2021/12/30 03:38:46;;;;;;;15.80;5.72;;;;;;;11.30;100.00;101062.03;5013489;28;20049;-52
2021/12/30 03:41:16;;;;;;;18.35;6.60;;;;;;;11.30;100.00;101072.94;5013325;28;20030;-49
2021/12/30 03:43:44;;;;;;;14.32;5.60;;;;;;;11.31;100.00;101076.50;5012676;28;20057;-49
2021/12/30 03:46:12;;;;;;;10.80;4.95;;;;;;;11.31;100.00;101079.22;4998240;28;20046;-50
2021/12/30 03:48:43;;;;;;;12.43;5.35;;;;;;;11.33;100.00;101076.22;4993918;28;20049;-48
2021/12/30 03:51:20;;;;;;;10.50;4.53;;;;;;;11.32;100.00;101072.66;4994038;28;20057;-49
2021/12/30 03:53:50;;;;;;;10.65;4.70;;;;;;;11.33;100.00;101068.88;5002887;28;20080;-48
2021/12/30 03:56:20;;;;;;;8.85;3.85;;;;;;;11.33;100.00;101068.03;5011592;28;20057;-47
2021/12/30 03:58:48;;;;;;;8.25;4.13;;;;;;;11.32;100.00;101069.94;5013531;28;20390;-49
2021/12/30 04:01:18;;;;;;;8.32;3.92;;;;;;;11.34;100.00;101062.31;5013262;28;20049;-51
2021/12/30 04:03:48;;;;;;;10.80;4.40;;;;;;;11.34;100.00;101061.50;5013388;28;20053;-46
2021/12/30 04:06:16;;;;;;;8.57;3.80;;;;;;;11.34;100.00;101061.50;4996015;28;20045;-48
2021/12/30 04:08:44;;;;;;;7.18;3.38;;;;;;;11.36;100.00;101064.78;4998587;28;20066;-49
2021/12/30 04:11:12;;;;;;;7.95;3.47;;;;;;;11.36;100.00;101065.59;5009774;28;20053;-49
2021/12/30 04:13:40;;;;;;;7.68;3.53;;;;;;;11.38;100.00;101063.44;5013237;28;20100;-48
2021/12/30 04:16:08;;;;;;;6.18;3.35;;;;;;;11.36;100.00;101060.13;5011309;28;20045;-50
2021/12/30 04:18:35;;;;;;;6.40;3.00;;;;;;;11.37;100.00;101066.41;5013101;28;20057;-46
2021/12/30 04:21:03;;;;;;;5.50;3.13;;;;;;;11.38;100.00;101074.34;5012917;28;20052;-51
2021/12/30 04:23:31;;;;;;;6.72;3.15;;;;;;;11.39;100.00;101078.69;5012101;28;20400;-47
2021/12/30 04:25:58;;;;;;;7.93;3.22;;;;;;;11.40;100.00;101079.50;5012743;28;20054;-51
2021/12/30 04:28:26;;;;;;;7.03;2.97;;;;;;;11.40;100.00;101080.34;5011333;28;20084;-49
2021/12/30 04:30:54;;;;;;;6.00;3.05;;;;;;;11.41;100.00;101076.53;5012850;28;20408;-48
2021/12/30 04:33:21;;;;;;;7.10;3.20;;;;;;;11.43;100.00;101085.25;5013517;28;20053;-52
2021/12/30 04:35:50;;;;;;;5.45;3.17;;;;;;;11.45;100.00;101085.00;5012798;28;20413;-50
2021/12/30 04:38:17;;;;;;;4.75;3.00;;;;;;;11.48;100.00;101079.00;5010789;28;20042;-48
2021/12/30 04:40:45;;;;;;;5.70;3.30;;;;;;;11.50;100.00;101087.75;4997282;28;20046;-45
2021/12/30 04:43:13;;;;;;;6.45;3.58;;;;;;;11.52;100.00;101083.66;4993017;28;20141;-45
2021/12/30 04:45:42;;;;;;;7.30;3.72;;;;;;;11.55;100.00;101082.31;4991505;28;20061;-48
2021/12/30 04:48:11;;;;;;;9.68;4.68;;;;;;;11.58;100.00;101094.59;4993703;28;20394;-50
2021/12/30 04:50:38;;;;;;;6.60;3.97;;;;;;;11.60;100.00;101084.22;4992935;28;20038;-52
2021/12/30 04:53:06;;;;;;;5.38;4.03;;;;;;;11.65;100.00;101090.53;4995854;28;20497;-52
2021/12/30 04:55:34;;;;;;;6.47;4.43;;;;;;;11.67;100.00;101093.00;5011947;28;20046;-49
2021/12/30 04:58:01;;;;;;;5.85;4.22;;;;;;;11.66;100.00;101094.06;5009377;28;20050;-49
2021/12/30 05:00:29;;;;;;;6.18;4.28;;;;;;;11.67;100.00;101099.25;5012500;28;20038;-48
2021/12/30 05:03:13;;;;;;;5.65;3.85;;;;;;;11.68;100.00;101080.97;5012074;28;20322;-48
2021/12/30 05:05:47;;;;;;;6.57;4.70;;;;;;;11.68;100.00;101078.25;5012312;28;20042;-46
2021/12/30 05:08:16;;;;;;;7.18;4.88;;;;;;;11.69;100.00;101086.16;5010663;28;20534;-47
2021/12/30 05:10:43;;;;;;;5.95;4.68;;;;;;;11.71;100.00;101089.47;5011999;28;20054;-50
2021/12/30 05:13:12;;;;;;;10.07;5.97;;;;;;;11.74;100.00;101082.63;5012342;28;20042;-48
2021/12/30 05:15:42;;;;;;;8.98;6.20;;;;;;;11.77;100.00;101079.34;4996829;28;20489;-48
2021/12/30 05:18:12;;;;;;;9.45;6.20;;;;;;;11.78;100.00;101086.44;4993414;28;20050;-48
2021/12/30 05:20:40;;;;;;;7.03;5.47;;;;;;;11.80;100.00;101087.00;4992871;28;20137;-48
2021/12/30 05:23:08;;;;;;;7.22;5.38;;;;;;;11.82;100.00;101079.38;4992871;28;20050;-49
2021/12/30 05:25:36;;;;;;;6.88;5.25;;;;;;;11.85;100.00;101078.81;4992249;28;20043;-50
2021/12/30 05:28:04;;;;;;;7.00;4.70;;;;;;;11.86;100.00;101082.41;4993477;28;20181;-50
2021/12/30 05:30:32;;;;;;;7.05;4.50;;;;;;;11.90;100.00;101081.59;4992475;28;20128;-51
2021/12/30 05:32:59;;;;;;;7.30;4.80;;;;;;;11.91;100.00;101088.69;4992430;28;20046;-49
2021/12/30 05:35:27;;;;;;;7.00;4.72;;;;;;;11.91;100.00;101102.34;5006604;28;20137;-49
2021/12/30 05:37:55;;;;;;;5.95;4.30;;;;;;;11.94;100.00;101101.00;5011074;28;20492;-49
2021/12/30 05:40:23;;;;;;;6.20;4.25;;;;;;;11.98;100.00;101109.44;5010662;28;20044;-50
2021/12/30 05:42:51;;;;;;;5.47;3.90;;;;;;;12.01;100.00;101109.75;5010765;28;20457;-47
2021/12/30 05:45:19;;;;;;;4.90;4.10;;;;;;;12.02;100.00;101110.56;5014823;28;20481;-48
2021/12/30 05:47:50;;;;;;;5.70;4.03;;;;;;;12.03;100.00;101117.69;5015610;28;20042;-49
2021/12/30 05:50:20;;;;;;;4.80;3.78;;;;;;;12.02;100.00;101116.84;5014279;28;20120;-51
2021/12/30 05:52:49;;;;;;;6.38;4.03;;;;;;;12.05;100.00;101118.19;5015761;28;20041;-51
2021/12/30 05:55:17;;;;;;;5.03;3.55;;;;;;;12.06;100.00;101125.31;5013754;28;20124;-48
2021/12/30 05:57:44;;;;;;;6.07;3.65;;;;;;;12.09;100.00;101130.22;5015256;28;20061;-49
2021/12/30 06:00:15;;;;;;;5.03;3.10;;;;;;;12.13;100.00;101128.63;5002918;28;20121;-51
2021/12/30 06:02:43;;;;;;;4.03;3.10;;;;;;;12.16;100.00;101130.78;4995983;28;20157;-50
2021/12/30 06:05:11;;;;;;;3.78;3.30;;;;;;;12.16;100.00;101130.78;5012055;28;20065;-53
2021/12/30 06:07:39;;;;;;;4.13;3.20;;;;;;;12.17;100.00;101113.34;5014303;28;20057;-47
2021/12/30 06:10:07;;;;;;;4.63;3.40;;;;;;;12.20;100.00;101112.78;5013456;28;20046;-51
2021/12/30 06:12:35;;;;;;;5.40;3.55;;;;;;;12.25;100.00;101117.44;5014830;28;20050;-48
2021/12/30 06:15:03;;;;;;;4.07;3.22;;;;;;;12.26;100.00;101108.94;5014768;28;20140;-49
2021/12/30 06:17:31;;;;;;;4.95;3.25;;;;;;;12.24;100.00;101124.81;5015275;28;20056;-49
2021/12/30 06:19:59;;;;;;;5.07;3.40;;;;;;;12.24;100.00;101119.34;5013617;28;20053;-49
2021/12/30 06:22:26;;;;;;;5.68;3.40;;;;;;;12.23;100.00;101128.63;5014983;28;20046;-49
2021/12/30 06:24:54;;;;;;;4.32;3.30;;;;;;;12.23;100.00;101117.69;4995929;28;20124;-47
2021/12/30 06:27:22;;;;;;;7.00;3.80;;;;;;;12.25;100.00;101123.72;4994793;28;20076;-51
2021/12/30 06:29:49;;;;;;;4.47;3.50;;;;;;;12.25;100.00;101120.16;4995266;28;20057;-50
2021/12/30 06:32:17;;;;;;;4.68;3.60;;;;;;;12.25;100.00;101136.56;5014914;28;20053;-50
2021/12/30 06:34:44;;;;;;;4.20;3.00;;;;;;;12.27;100.00;101132.47;5014935;28;20058;-49
2021/12/30 06:37:12;;;;;;;4.78;3.10;;;;;;;12.29;100.00;101141.22;5014414;28;20050;-49
2021/12/30 06:39:40;;;;;;;3.88;3.05;;;;;;;12.28;100.00;101136.00;5004299;28;20076;-48
2021/12/30 06:42:07;;;;;;;4.35;3.10;;;;;;;12.31;100.00;101143.66;4995743;28;20489;-50
2021/12/30 06:44:35;;;;;;;4.00;3.10;;;;;;;12.31;100.00;101152.69;4994948;28;20050;-50
2021/12/30 06:47:05;;;;;;;5.72;2.90;;;;;;;12.32;100.00;101157.06;4994697;28;20046;-48
2021/12/30 06:49:37;;;;;;;4.03;2.78;;;;;;;12.35;100.00;101148.31;4994550;28;20054;-49
2021/12/30 06:52:07;;;;;;;4.05;2.65;;;;;;;12.35;100.00;101142.84;4995573;28;20049;-49
2021/12/30 06:54:36;;;;;;;4.78;2.80;;;;;;;12.35;100.00;101158.41;4994329;28;20051;-50
2021/12/30 06:57:06;;;;;;;4.10;2.90;;;;;;;12.35;100.00;101163.88;4994301;28;20073;-50
2021/12/30 06:59:37;;;;;;;3.63;2.65;;;;;;;12.34;100.00;101165.81;4994659;28;20058;-48
2021/12/30 07:02:05;;;;;;;5.28;2.60;;;;;;;12.35;100.00;101170.16;4995707;28;20137;-50
2021/12/30 07:04:35;;;;;;;5.45;3.20;;;;;;;12.35;100.00;101183.00;4994676;28;20058;-47
2021/12/30 07:07:03;;;;;;;4.72;2.80;;;;;;;12.36;100.00;101187.38;4994498;28;20380;-51
2021/12/30 07:09:30;;;;;;;4.63;2.70;;;;;;;12.36;100.00;101188.22;5003008;28;20052;-49
2021/12/30 07:11:58;;;;;;;5.82;3.20;;;;;;;12.34;100.00;101195.84;5005625;28;20132;-48
2021/12/30 07:14:26;;;;;;;4.25;3.00;;;;;;;12.36;100.00;101195.56;4994453;28;20046;-47
2021/12/30 07:16:53;;;;;;;3.40;2.65;;;;;;;12.36;100.00;101193.69;5008920;28;20079;-49
2021/12/30 07:19:21;;;;;;;4.65;3.20;;;;;;;12.40;100.00;101198.59;5013608;28;20042;-49
2021/12/30 07:21:52;;;;;;;5.85;3.05;;;;;;;12.39;100.00;101202.41;5013520;28;20408;-50
2021/12/30 07:24:21;;;;;;;4.63;3.67;;;;;;;12.39;100.00;101196.94;5011709;28;20121;-49
2021/12/30 07:26:50;;;;;;;4.07;3.13;;;;;;;12.40;100.00;101204.06;5013571;28;20115;-49
2021/12/30 07:29:18;;;;;;;3.92;3.03;;;;;;;12.40;100.00;101198.59;5013605;28;20154;-49
2021/12/30 07:31:46;;;;;;;5.18;4.00;;;;;;;12.38;100.00;101201.59;5013734;28;20412;-50
2021/12/30 07:34:13;;;;;;;3.80;3.40;;;;;;;12.43;100.00;101214.44;4315331;28;10000738;-52
2021/12/30 07:36:41;;;;;;;6.03;4.40;;;;;;;12.43;100.00;101211.72;5005501;28;20046;-50
2021/12/30 07:39:09;;;;;;;7.25;4.50;;;;;;;12.42;100.00;101223.75;5011489;28;20374;-50
2021/12/30 07:41:37;;;;;;;6.00;4.60;;;;;;;12.42;100.00;101221.00;5010306;28;20046;-50
2021/12/30 07:44:05;;;;;;;7.35;4.95;;;;;;;12.41;100.00;101220.19;5011684;28;20050;-51
2021/12/30 07:46:33;;;;;;;8.45;5.57;;;;;;;12.40;100.00;101226.75;5009430;28;20042;-48
2021/12/30 07:49:01;;;;;;;8.32;5.20;;;;;;;12.40;100.00;101225.94;5011706;28;20072;-52
2021/12/30 07:51:29;;;;;;;8.82;5.45;;;;;;;12.41;100.00;101228.41;5011276;28;20118;-52
2021/12/30 07:53:57;;;;;;;7.22;5.00;;;;;;;12.44;100.00;101233.31;5009979;28;20081;-48
2021/12/30 07:56:24;;;;;;;5.72;4.50;;;;;;;12.47;100.00;101231.94;5000493;28;20058;-53
2021/12/30 07:58:55;;;;;;;5.97;4.20;;;;;;;12.52;100.00;101234.69;4993489;28;20046;-50
2021/12/30 08:01:26;;;;;;;6.82;4.43;;;;;;;12.52;100.00;101240.16;4993576;28;20108;-48
2021/12/30 08:03:53;;;;;;;5.60;4.05;;;;;;;12.53;100.00;101237.16;4993649;28;20450;-54
2021/12/30 08:06:26;;;;;;;7.68;4.40;;;;;;;12.52;100.00;101232.78;4993938;28;20042;-50
2021/12/30 08:08:54;;;;;;;6.45;4.38;;;;;;;12.52;100.00;101231.97;4996342;28;20121;-48
2021/12/30 08:11:22;;;;;;;7.10;4.68;;;;;;;12.51;100.00;101227.59;5011581;28;20385;-48
2021/12/30 08:13:49;;;;;;;6.68;4.60;;;;;;;12.51;100.00;101242.06;5004743;28;20137;-48
2021/12/30 08:16:17;;;;;;;11.25;5.20;;;;;;;12.69;100.00;101240.72;5010406;28;20054;-47
2021/12/30 08:18:45;;;;;;;11.18;5.75;;;;;;;12.72;100.00;101247.56;5012606;28;20084;-50
2021/12/30 08:21:13;;;;;;;27.83;8.15;;;;;;;12.73;100.00;101258.22;5012935;28;20048;-50
2021/12/30 08:23:40;;;;;;;8.40;5.22;;;;;;;12.83;100.00;101254.69;5013231;28;20053;-51
2021/12/30 08:26:08;;;;;;;13.27;5.55;;;;;;;12.75;100.00;101252.50;5013265;28;20447;-51
2021/12/30 08:28:36;;;;;;;9.75;5.10;;;;;;;12.73;100.00;101254.69;4998875;28;20484;-51
2021/12/30 08:31:04;;;;;;;11.88;5.38;;;;;;;12.71;100.00;101259.59;4993794;28;20053;-50
2021/12/30 08:33:32;;;;;;;10.40;5.82;;;;;;;12.71;100.00;101254.94;4993603;28;20070;-53
2021/12/30 08:35:59;;;;;;;9.48;5.95;;;;;;;12.67;100.00;101245.63;4993549;28;20050;-51
2021/12/30 08:38:27;;;;;;;11.60;6.40;;;;;;;12.66;100.00;101240.44;4994310;28;20039;-50
2021/12/30 08:40:55;;;;;;;13.43;6.18;;;;;;;12.64;100.00;101253.56;4992060;28;20053;-50
2021/12/30 08:43:22;;;;;;;19.15;7.32;;;;;;;12.70;100.00;101247.00;4993260;28;20042;-50
2021/12/30 08:45:50;;;;;;;9.23;6.63;;;;;;;12.69;100.00;101251.66;4993172;28;20042;-52
2021/12/30 08:48:19;;;;;;;9.50;6.22;;;;;;;12.67;100.00;101261.22;4991891;28;20042;-53
2021/12/30 08:50:47;;;;;;;9.90;7.05;;;;;;;12.67;100.00;101253.84;5012875;28;20053;-53
2021/12/30 08:53:16;;;;;;;11.40;6.88;;;;;;;12.67;100.00;101270.25;5012839;28;20049;-52
2021/12/30 08:55:43;;;;;;;9.75;6.75;;;;;;;12.70;100.00;101268.88;5011152;28;20069;-50
2021/12/30 08:58:11;;;;;;;15.75;6.07;;;;;;;12.68;100.00;101282.84;5011378;28;20068;-53
2021/12/30 09:00:41;;;;;;;10.82;6.30;;;;;;;12.68;100.00;101280.09;5011844;28;20052;-54
2021/12/30 09:03:09;;;;;;;8.35;5.90;;;;;;;12.70;100.00;101286.13;5012959;28;20050;-54
2021/12/30 09:05:37;;;;;;;12.77;5.65;;;;;;;12.73;100.00;101293.78;5013018;28;20192;-52
2021/12/30 09:08:05;;;;;;;13.88;5.93;;;;;;;12.74;100.00;101298.13;5012108;28;20145;-53
2021/12/30 09:10:40;;;;;;;7.35;4.50;;;;;;;12.74;100.00;101298.13;4993448;28;20050;-53
2021/12/30 09:13:09;;;;;;;9.07;5.05;;;;;;;12.81;100.00;101292.41;4993083;28;20038;-50
2021/12/30 09:15:37;;;;;;;8.80;4.72;;;;;;;12.83;100.00;101294.88;4993202;28;20051;-54
2021/12/30 09:18:06;;;;;;;8.90;5.03;;;;;;;12.84;100.00;101294.59;4992604;28;20130;-51
2021/12/30 09:20:35;;;;;;;7.82;4.32;;;;;;;12.85;100.00;101300.91;4997385;28;20046;-53
2021/12/30 09:23:03;;;;;;;11.70;5.55;;;;;;;12.88;100.00;101309.38;4997106;28;20042;-51
2021/12/30 09:25:31;;;;;;;8.98;4.35;;;;;;;12.87;100.00;101304.16;4997998;28;20034;-55
2021/12/30 09:27:59;;;;;;;7.40;3.90;;;;;;;12.84;100.00;101302.00;5014596;28;20496;-50
2021/12/30 09:30:28;;;;;;;22.35;4.68;;;;;;;12.84;100.00;101302.81;5014540;28;20125;-53
2021/12/30 09:32:58;;;;;;;8.60;4.20;;;;;;;12.87;100.00;101304.16;5016787;28;20244;-55
2021/12/30 09:35:26;;;;;;;9.45;4.57;;;;;;;12.85;100.00;101318.13;5016667;28;20049;-55
2021/12/30 09:37:54;;;;;;;8.82;4.20;;;;;;;12.83;100.00;101306.63;5016376;28;20046;-55
2021/12/30 09:40:22;;;;;;;8.23;4.70;;;;;;;12.84;100.00;101308.28;5015387;28;20050;-53
2021/12/30 09:42:54;;;;;;;8.40;4.35;;;;;;;12.84;100.00;101312.94;5016310;28;20038;-55
2021/12/30 09:45:27;;;;;;;14.05;4.70;;;;;;;12.86;100.00;101314.28;5016410;28;20100;-54
2021/12/30 09:47:57;;;;;;;10.98;4.60;;;;;;;12.89;100.00;101321.13;5016154;28;20046;-54
2021/12/30 09:50:29;;;;;;;13.90;4.70;;;;;;;12.93;100.00;101327.72;5005757;28;20061;-55
2021/12/30 09:52:58;;;;;;;12.23;4.40;;;;;;;12.94;100.00;101340.28;4996371;28;20049;-51
2021/12/30 09:55:30;;;;;;;9.73;3.80;;;;;;;12.96;100.00;101341.69;4996167;28;20121;-55
2021/12/30 09:57:59;;;;;;;11.27;4.40;;;;;;;12.96;100.00;101333.47;4996545;28;20054;-54
2021/12/30 10:00:27;;;;;;;10.10;4.10;;;;;;;12.98;100.00;101346.88;4997368;28;20042;-53
2021/12/30 10:02:54;;;;;;;15.65;5.20;;;;;;;13.06;100.00;101337.28;4996354;28;20119;-47
2021/12/30 10:05:28;;;;;;;15.88;4.15;;;;;;;13.10;100.00;101335.66;4996413;28;20043;-54
2021/12/30 10:08:12;;;;;;;13.10;3.95;;;;;;;13.06;100.00;101340.88;4996074;28;20054;-54
2021/12/30 10:10:44;;;;;;;13.10;4.50;;;;;;;13.07;100.00;101331.56;4997177;28;20400;-52
2021/12/30 10:13:16;;;;;;;12.13;4.28;;;;;;;13.14;100.00;101334.84;4996170;28;20176;-53
2021/12/30 10:15:45;;;;;;;10.90;3.92;;;;;;;13.16;100.00;101338.13;4995185;28;20070;-51
2021/12/30 10:18:14;;;;;;;18.08;4.57;;;;;;;13.16;100.00;101349.09;5003243;28;20508;-52
2021/12/30 10:20:42;;;;;;;15.20;4.30;;;;;;;13.15;100.00;101347.44;5002869;28;20049;-51
2021/12/30 10:23:12;;;;;;;13.23;3.95;;;;;;;13.13;100.00;101344.16;5015014;28;20068;-54
2021/12/30 10:25:43;;;;;;;13.20;5.05;;;;;;;13.16;100.00;101353.75;5014878;28;20046;-52
2021/12/30 10:28:31;;;;;;;14.93;4.20;;;;;;;13.25;100.00;101352.09;5013590;28;20417;-53
2021/12/30 10:31:17;;;;;;;9.75;4.22;;;;;;;13.22;100.00;101353.44;5013209;28;20056;-49
2021/12/30 10:34:04;;;;;;;13.55;4.13;;;;;;;13.20;100.00;101361.13;5015085;28;20037;-53
2021/12/30 10:36:34;;;;;;;15.35;4.30;;;;;;;13.22;100.00;101353.44;5015275;28;20430;-48
2021/12/30 10:39:31;;;;;;;14.10;4.10;;;;;;;13.22;100.00;101356.19;5015222;28;20049;-49
2021/12/30 10:42:10;;;;;;;11.48;4.20;;;;;;;13.18;100.00;101352.38;4994999;28;20042;-53
2021/12/30 10:44:52;;;;;;;14.10;4.20;;;;;;;13.17;100.00;101350.72;5014908;28;20045;-50
2021/12/30 10:47:22;;;;;;;17.70;4.68;;;;;;;13.16;100.00;101343.63;4997928;28;20073;-49
2021/12/30 10:50:07;;;;;;;16.30;4.97;;;;;;;13.20;100.00;101360.28;4995347;28;20046;-48
2021/12/30 10:52:44;;;;;;;12.90;4.23;;;;;;;13.19;100.00;101364.94;5014824;28;20453;-48
2021/12/30 10:55:14;;;;;;;13.63;4.38;;;;;;;13.22;100.00;101360.84;5014611;28;20129;-50
2021/12/30 10:57:41;;;;;;;14.70;4.70;;;;;;;13.22;100.00;101352.63;5014641;28;20045;-49
2021/12/30 11:00:10;;;;;;;16.27;4.38;;;;;;;13.21;100.00;101357.28;5012669;28;20112;-46
2021/12/30 11:02:38;;;;;;;14.85;4.75;;;;;;;13.25;100.00;101356.75;5014792;28;20042;-49
2021/12/30 11:05:11;;;;;;;13.77;4.47;;;;;;;13.24;100.00;101350.44;5009609;28;20077;-51
2021/12/30 11:07:46;;;;;;;12.75;4.40;;;;;;;13.24;100.00;101355.94;4995442;28;20400;-48
2021/12/30 11:10:17;;;;;;;12.40;4.13;;;;;;;13.22;100.00;101364.41;4998523;28;20042;-50
2021/12/30 11:12:46;;;;;;;17.75;4.45;;;;;;;13.24;100.00;101349.63;5014156;28;20221;-52
2021/12/30 11:15:40;;;;;;;12.77;4.43;;;;;;;13.26;100.00;101352.94;5014587;28;20100;-49
2021/12/30 11:18:12;;;;;;;15.32;4.28;;;;;;;13.28;100.00;101358.97;5012425;28;20053;-51
2021/12/30 11:20:43;;;;;;;10.90;4.07;;;;;;;13.25;100.00;101357.56;5012737;28;20511;-48
2021/12/30 11:23:13;;;;;;;14.32;4.20;;;;;;;13.24;100.00;101363.31;5014373;28;20053;-50